Terminal Aerodrome Forecast
Issued by NWS

Home | Current Version | Previous Version | Text Only | Print | Product List | Glossary On
Versions: 1 2 3 4 5 6 7 8 9 10 11 12 13 14 15 16 17 18 19 20 21 22 23 24 25 26 27 28 29 30 31 32 33 34
000
FTUS43 KDTX 301724
TAFYIP
TAF
KYIP 301724Z 3018/3118 33011G22KT P6SM SCT030
     FM310000 VRB03KT P6SM SCT040 BKN080
     FM310400 20004KT P6SM BKN035
     FM311000 21005KT P6SM SCT030 BKN080=

USA.gov is the U.S. government's official web portal to all federal, state and local government web resources and services.